Time;durP1;ratioP1;P1;durP2;ratioP2;P2;SDS_P1;SDS_P2;PMS_P1;PMS_P2;Temp;Humidity;BMP_temperature;BMP_pressure;BME280_temperature;BME280_humidity;BME280_pressure;Samples;Min_cycle;Max_cycle;Signal;HPM_P1;HPM_P2
2023/02/11 00:01:26;;;;;;;14.52;7.93;;;;;;;-4.81;79.44;102548.97;5020257;28;20405;-65
2023/02/11 00:03:52;;;;;;;22.13;10.50;;;;;;;-4.77;78.33;102538.59;5024378;28;20034;-66
2023/02/11 00:06:17;;;;;;;20.20;11.37;;;;;;;-4.64;78.00;102545.25;5024697;28;20535;-66
2023/02/11 00:08:43;;;;;;;40.17;16.33;;;;;;;-5.24;78.55;102496.34;5007603;28;20132;-66
2023/02/11 00:11:13;;;;;;;40.83;17.40;;;;;;;-4.96;78.38;102555.41;5024762;28;20097;-67
2023/02/11 00:13:39;;;;;;;40.40;17.43;;;;;;;-5.00;78.87;102559.84;5025190;28;20026;-68
2023/02/11 00:16:12;;;;;;;41.80;16.57;;;;;;;-5.25;79.14;102529.75;5025950;28;20025;-66
2023/02/11 00:18:38;;;;;;;28.67;13.63;;;;;;;-5.10;79.65;102540.97;5025203;28;20104;-68
2023/02/11 00:21:15;;;;;;;31.43;14.47;;;;;;;-5.13;78.46;102529.59;5025297;28;20033;-66
2023/02/11 00:23:41;;;;;;;31.40;14.40;;;;;;;-5.26;79.19;102558.19;5024509;28;20084;-68
2023/02/11 00:26:19;;;;;;;29.30;12.57;;;;;;;-5.39;80.11;102554.72;5025049;28;20029;-65
2023/02/11 00:28:46;;;;;;;26.47;13.87;;;;;;;-5.51;81.15;102553.97;5012313;28;20038;-67
2023/02/11 00:31:14;;;;;;;23.10;11.00;;;;;;;-5.80;81.70;102540.88;5028679;28;20040;-67
2023/02/11 00:33:40;;;;;;;17.77;10.43;;;;;;;-5.88;82.43;102533.91;5028340;28;20036;-67
2023/02/11 00:36:10;;;;;;;21.63;11.20;;;;;;;-5.83;82.33;102542.06;5027817;28;20029;-67
2023/02/11 00:38:36;;;;;;;41.70;21.47;;;;;;;-5.83;82.49;102532.00;5008756;28;20138;-67
2023/02/11 00:41:01;;;;;;;30.77;16.30;;;;;;;-5.63;81.88;102553.25;5008209;28;20033;-67
2023/02/11 00:43:26;;;;;;;30.00;16.37;;;;;;;-5.52;81.38;102557.19;5027831;28;20061;-67
2023/02/11 00:45:52;;;;;;;27.53;11.20;;;;;;;-5.46;81.40;102552.06;5028106;28;20029;-67
2023/02/11 00:48:17;;;;;;;19.43;10.03;;;;;;;-5.70;81.68;102490.19;5028506;28;20033;-66
2023/02/11 00:50:43;;;;;;;16.33;9.73;;;;;;;-5.30;80.64;102544.97;5028420;28;20363;-66
2023/02/11 00:53:10;;;;;;;21.87;10.90;;;;;;;-5.36;80.59;102525.84;5028426;28;20449;-66
2023/02/11 00:55:35;;;;;;;22.13;10.80;;;;;;;-5.24;80.24;102534.09;5015228;28;20488;-70
2023/02/11 00:58:01;;;;;;;21.63;11.10;;;;;;;-5.28;80.01;102539.44;5027761;28;20032;-66
2023/02/11 01:00:26;;;;;;;20.23;10.20;;;;;;;-5.29;79.72;102547.69;5028379;28;20403;-66
2023/02/11 01:02:52;;;;;;;19.80;9.90;;;;;;;-5.35;79.36;102539.31;5027996;28;20033;-66
2023/02/11 01:05:19;;;;;;;20.23;10.90;;;;;;;-5.36;79.08;102538.44;5028043;28;20026;-65
2023/02/11 01:07:44;;;;;;;27.60;11.67;;;;;;;-5.44;79.25;102539.00;5028159;28;20044;-66
2023/02/11 01:10:10;;;;;;;21.50;11.00;;;;;;;-5.57;79.10;102536.44;5028156;28;20399;-65
2023/02/11 01:12:37;;;;;;;25.70;12.37;;;;;;;-5.65;80.07;102542.06;5027815;28;20041;-67
2023/02/11 01:15:03;;;;;;;26.13;12.17;;;;;;;-5.72;80.22;102511.72;5027317;28;20072;-63
2023/02/11 01:17:28;;;;;;;24.63;12.37;;;;;;;-5.55;79.90;102532.50;5027691;28;20396;-66
2023/02/11 01:19:54;;;;;;;26.73;11.60;;;;;;;-5.64;80.65;102531.28;5027830;28;20036;-66
2023/02/11 01:22:19;;;;;;;21.53;11.20;;;;;;;-5.55;82.48;102531.63;5028114;28;20049;-66
2023/02/11 01:24:44;;;;;;;22.33;11.33;;;;;;;-5.50;82.24;102527.22;5028149;28;20037;-65
2023/02/11 01:27:10;;;;;;;27.87;11.87;;;;;;;-5.54;81.28;102528.41;5027208;28;20033;-67
2023/02/11 01:29:35;;;;;;;26.57;11.70;;;;;;;-5.61;81.11;102523.25;5014746;28;20419;-67
2023/02/11 01:32:01;;;;;;;20.23;11.40;;;;;;;-6.02;80.90;102475.16;5027061;28;20037;-67
2023/02/11 01:34:26;;;;;;;22.83;11.43;;;;;;;-6.05;81.63;102467.16;5027258;28;20538;-65
2023/02/11 01:36:57;;;;;;;25.33;12.97;;;;;;;-5.69;81.26;102515.56;5027453;28;20041;-67
2023/02/11 01:39:23;;;;;;;24.23;11.97;;;;;;;-6.05;80.64;102481.38;5015675;28;20049;-66
2023/02/11 01:41:48;;;;;;;24.83;12.80;;;;;;;-6.19;82.29;102490.44;5026335;28;20079;-67
2023/02/11 01:44:34;;;;;;;28.83;13.30;;;;;;;-6.10;83.50;102532.63;5027479;28;20029;-67
2023/02/11 01:47:03;;;;;;;24.77;13.10;;;;;;;-6.30;84.70;102529.91;5005831;28;20488;-66
2023/02/11 01:49:56;;;;;;;23.10;12.13;;;;;;;-6.32;84.56;102528.78;5027341;28;20029;-65
2023/02/11 01:52:24;;;;;;;21.80;11.03;;;;;;;-6.52;84.87;102485.16;4945996;29;20036;-66
2023/02/11 01:57:42;;;;;;;26.10;12.83;;;;;;;-6.12;82.36;102522.34;4946448;29;20094;-64
2023/02/11 02:00:10;;;;;;;19.80;11.15;;;;;;;-6.06;81.78;102522.28;4946116;29;20039;-67
2023/02/11 02:02:48;;;;;;;25.88;12.70;;;;;;;-6.02;81.74;102524.50;4945981;29;20043;-66
2023/02/11 02:05:22;;;;;;;22.77;13.10;;;;;;;-5.97;81.01;102520.09;4947971;29;20024;-66
2023/02/11 02:08:05;;;;;;;22.87;11.73;;;;;;;-5.93;81.08;102517.28;4950764;29;20039;-67
2023/02/11 02:10:34;;;;;;;24.87;13.13;;;;;;;-6.04;80.49;102519.28;4950958;29;20043;-66
2023/02/11 02:13:00;;;;;;;21.70;11.90;;;;;;;-6.36;81.42;102519.91;4951171;29;20031;-64
2023/02/11 02:15:32;;;;;;;25.47;12.67;;;;;;;-6.48;82.36;102521.63;4950386;29;20399;-65
2023/02/11 02:18:08;;;;;;;20.47;11.33;;;;;;;-6.45;82.19;102518.66;4950760;29;20031;-64
2023/02/11 02:20:52;;;;;;;27.33;12.00;;;;;;;-6.45;81.79;102519.56;4950214;29;20027;-66
2023/02/11 02:23:36;;;;;;;24.73;11.80;;;;;;;-6.54;81.46;102524.22;4950258;29;20047;-67
2023/02/11 02:26:12;;;;;;;23.57;11.93;;;;;;;-6.71;82.31;102510.94;4949703;28;20170;-65
2023/02/11 02:29:05;;;;;;;21.77;11.37;;;;;;;-6.65;82.45;102516.81;4967426;28;20575;-67
2023/02/11 02:32:09;;;;;;;22.07;11.70;;;;;;;-6.59;81.82;102514.22;5031049;28;20488;-66
2023/02/11 02:34:34;;;;;;;22.10;9.80;;;;;;;-6.62;81.53;102513.81;5031061;28;20518;-67
2023/02/11 02:37:07;;;;;;;22.63;11.53;;;;;;;-6.61;80.91;102525.69;5030724;28;20060;-66
2023/02/11 02:39:35;;;;;;;19.23;10.70;;;;;;;-6.83;80.73;102490.97;5028260;28;20049;-63
2023/02/11 02:42:02;;;;;;;15.82;7.80;;;;;;;-6.64;81.10;102518.63;5029880;28;20033;-66
2023/02/11 02:44:29;;;;;;;20.70;10.00;;;;;;;-6.58;80.85;102519.47;5030693;28;20042;-66
2023/02/11 02:46:54;;;;;;;18.73;9.97;;;;;;;-6.61;80.63;102516.53;5030977;28;20029;-66
2023/02/11 02:49:19;;;;;;;21.63;9.67;;;;;;;-6.73;80.84;102499.75;5030716;28;20029;-67
2023/02/11 02:52:10;;;;;;;20.77;10.37;;;;;;;-6.61;80.83;102521.56;5030031;28;20030;-67
2023/02/11 02:54:44;;;;;;;18.83;10.37;;;;;;;-6.64;81.08;102523.66;5029922;28;20133;-68
2023/02/11 02:57:18;;;;;;;22.80;10.40;;;;;;;-6.61;80.61;102526.56;5030234;28;20021;-65
2023/02/11 02:59:53;;;;;;;21.97;10.63;;;;;;;-6.64;80.67;102516.13;5030545;28;20029;-67
2023/02/11 03:02:34;;;;;;;24.43;11.53;;;;;;;-6.68;80.66;102523.91;5030124;28;20100;-67
2023/02/11 03:05:13;;;;;;;20.40;11.23;;;;;;;-7.06;80.24;102462.66;5029619;28;20028;-66
2023/02/11 03:07:44;;;;;;;;;;;;;;;-6.75;79.94;102514.63;5030736;28;20025;-66
2023/02/11 03:10:25;;;;;;;21.43;11.07;;;;;;;-6.87;79.67;102518.84;5030136;28;19905;-66
2023/02/11 03:12:53;;;;;;;20.47;11.77;;;;;;;-6.91;80.28;102513.19;5029920;28;20495;-66
2023/02/11 03:15:22;;;;;;;20.40;10.80;;;;;;;-7.15;80.43;102516.59;5029888;28;20484;-65
2023/02/11 03:17:51;;;;;;;19.40;10.55;;;;;;;-7.68;81.45;102458.16;5029918;28;20026;-67
2023/02/11 03:20:20;;;;;;;17.20;10.53;;;;;;;-7.38;81.78;102509.22;5029686;28;20025;-67
2023/02/11 03:22:54;;;;;;;22.75;10.93;;;;;;;-7.25;81.49;102523.50;5030011;28;20029;-66
2023/02/11 03:25:24;;;;;;;24.77;10.87;;;;;;;-7.18;81.94;102516.16;4978965;28;20061;-66
2023/02/11 03:28:13;;;;;;;20.07;11.20;;;;;;;-7.15;81.16;102514.09;5014977;28;20026;-67
2023/02/11 03:30:45;;;;;;;21.43;11.00;;;;;;;-7.21;80.67;102514.13;4949528;29;20046;-65
2023/02/11 03:33:23;;;;;;;19.97;11.20;;;;;;;-7.10;80.77;102518.16;4951341;28;20035;-68
2023/02/11 03:35:56;;;;;;;20.17;10.77;;;;;;;-7.16;80.57;102495.59;4946627;29;20043;-66
2023/02/11 03:38:29;;;;;;;18.50;11.40;;;;;;;-7.04;80.42;102518.09;4949042;29;20063;-65
2023/02/11 03:40:56;;;;;;;22.53;11.83;;;;;;;-7.11;80.12;102516.34;4949357;29;20147;-66
2023/02/11 03:43:29;;;;;;;22.90;13.67;;;;;;;-7.28;80.99;102491.38;4949225;29;20062;-66
2023/02/11 03:45:56;;;;;;;25.33;11.80;;;;;;;-7.18;80.51;102502.03;4949281;29;20039;-69
2023/02/11 03:48:30;;;;;;;19.13;10.47;;;;;;;-7.12;80.04;102516.13;4949314;29;20075;-65
2023/02/11 03:50:58;;;;;;;23.13;11.47;;;;;;;-7.26;80.34;102502.53;4949099;29;20063;-64
2023/02/11 03:53:24;;;;;;;27.17;11.57;;;;;;;-7.33;80.53;102514.91;4949310;29;20576;-64
2023/02/11 03:55:52;;;;;;;19.53;11.40;;;;;;;-7.43;80.99;102515.22;4949522;29;20044;-66
2023/02/11 03:58:18;;;;;;;18.20;10.18;;;;;;;-7.43;82.16;102516.81;4949098;29;20407;-67
2023/02/11 04:00:44;;;;;;;20.93;10.97;;;;;;;-7.34;82.00;102503.06;4933012;29;20042;-64
2023/02/11 04:03:11;;;;;;;19.60;10.57;;;;;;;-7.24;81.43;102520.31;4948963;28;20031;-66
2023/02/11 04:05:37;;;;;;;20.23;11.87;;;;;;;-7.45;81.41;102480.56;4936429;29;20504;-65
2023/02/11 04:08:02;;;;;;;21.83;12.00;;;;;;;-7.16;81.81;102523.22;4991388;28;20038;-66
2023/02/11 04:10:28;;;;;;;20.57;11.37;;;;;;;-7.09;81.41;102525.00;5033587;28;20116;-66
2023/02/11 04:12:53;;;;;;;19.07;10.67;;;;;;;-7.28;81.23;102505.53;5033367;28;20025;-66
2023/02/11 04:15:19;;;;;;;19.37;10.50;;;;;;;-7.20;81.61;102520.97;5033266;28;20040;-66
2023/02/11 04:17:44;;;;;;;17.33;10.60;;;;;;;-7.40;81.94;102457.94;5033334;28;20033;-66
2023/02/11 04:20:11;;;;;;;17.50;10.60;;;;;;;-7.23;82.26;102517.13;5032760;28;20029;-66
2023/02/11 04:22:36;;;;;;;16.30;10.20;;;;;;;-7.28;82.33;102518.06;5021980;28;20096;-66
2023/02/11 04:25:03;;;;;;;18.10;10.30;;;;;;;-7.37;82.52;102511.06;5039459;28;20395;-67
2023/02/11 04:27:28;;;;;;;18.40;9.77;;;;;;;-7.32;82.89;102511.72;5053504;28;20021;-68
2023/02/11 04:29:54;;;;;;;21.33;10.17;;;;;;;-7.24;82.98;102517.81;5035611;28;20040;-63
2023/02/11 04:32:19;;;;;;;20.60;10.17;;;;;;;-7.24;82.62;102508.69;5022277;28;20026;-66
2023/02/11 04:34:45;;;;;;;19.00;10.57;;;;;;;-7.37;82.02;102513.56;5024138;28;20033;-67
2023/02/11 04:37:11;;;;;;;25.10;10.63;;;;;;;-7.88;82.48;102447.81;5031440;28;20385;-66
2023/02/11 04:39:36;;;;;;;19.07;11.37;;;;;;;-7.54;83.61;102507.75;5032851;28;20057;-66
2023/02/11 04:42:02;;;;;;;21.60;11.53;;;;;;;-7.53;82.67;102504.56;5032776;28;20588;-66
2023/02/11 04:44:28;;;;;;;21.53;10.63;;;;;;;-7.74;82.73;102455.69;5033112;28;20060;-69
2023/02/11 04:46:54;;;;;;;21.43;11.50;;;;;;;-7.47;82.39;102505.44;5033007;28;20033;-64
2023/02/11 04:49:19;;;;;;;17.60;10.33;;;;;;;-7.49;82.33;102502.72;5033241;28;20025;-66
2023/02/11 04:51:44;;;;;;;17.07;10.73;;;;;;;-7.52;82.17;102503.88;5033285;28;20447;-67
2023/02/11 04:54:10;;;;;;;20.73;10.47;;;;;;;-7.55;82.47;102505.94;5033282;28;20088;-66
2023/02/11 04:56:36;;;;;;;22.23;11.60;;;;;;;-7.47;82.03;102511.34;5032937;28;20033;-66
2023/02/11 04:59:02;;;;;;;18.17;10.70;;;;;;;-7.45;81.73;102514.09;5033179;28;20463;-66
2023/02/11 05:01:28;;;;;;;18.90;10.10;;;;;;;-7.43;81.68;102519.34;5033087;28;20033;-63
2023/02/11 05:03:53;;;;;;;21.40;9.70;;;;;;;-7.43;81.94;102515.22;5014754;28;20025;-66
2023/02/11 05:06:18;;;;;;;18.43;11.23;;;;;;;-7.42;81.21;102523.66;5032917;28;20026;-66
2023/02/11 05:08:44;;;;;;;26.13;11.77;;;;;;;-7.37;81.47;102515.19;5032869;28;20028;-66
2023/02/11 05:11:18;;;;;;;22.57;12.37;;;;;;;-7.31;81.65;102508.53;5032919;28;20526;-65
2023/02/11 05:13:44;;;;;;;20.93;11.10;;;;;;;-7.30;81.46;102505.31;5032706;28;20044;-69
2023/02/11 05:16:10;;;;;;;21.13;11.43;;;;;;;-7.35;81.35;102506.25;4997461;28;20041;-69
2023/02/11 05:18:39;;;;;;;19.27;10.47;;;;;;;-7.31;80.90;102496.88;5032648;28;20029;-65
2023/02/11 05:21:10;;;;;;;18.73;10.23;;;;;;;-7.55;81.34;102456.69;5032708;28;20021;-66
2023/02/11 05:23:36;;;;;;;25.17;11.40;;;;;;;-7.25;81.26;102518.50;5032307;28;20554;-68
2023/02/11 05:26:02;;;;;;;25.10;12.00;;;;;;;-7.22;81.37;102501.38;5032356;28;20091;-67
2023/02/11 05:28:28;;;;;;;22.00;11.03;;;;;;;-7.39;80.88;102479.84;5032363;28;20021;-64
2023/02/11 05:30:53;;;;;;;22.33;10.93;;;;;;;-7.17;80.70;102501.31;5032195;28;20112;-66
2023/02/11 05:33:19;;;;;;;23.60;11.93;;;;;;;-7.15;80.96;102499.03;5032634;28;20124;-67
2023/02/11 05:35:44;;;;;;;24.13;11.93;;;;;;;-7.25;80.95;102513.47;5031915;28;20080;-67
2023/02/11 05:38:10;;;;;;;25.43;12.67;;;;;;;-7.36;80.79;102487.78;5032104;28;20041;-63
2023/02/11 05:40:35;;;;;;;23.03;12.33;;;;;;;-7.32;80.86;102505.09;5032053;28;20103;-68
2023/02/11 05:43:01;;;;;;;22.57;11.93;;;;;;;-7.49;80.58;102502.72;5032454;28;20049;-67
2023/02/11 05:45:26;;;;;;;20.53;11.93;;;;;;;-7.49;81.16;102504.31;5032080;28;20547;-66
2023/02/11 05:47:52;;;;;;;19.70;11.90;;;;;;;-7.71;81.05;102468.66;5032040;28;20040;-66
2023/02/11 05:50:17;;;;;;;23.67;11.50;;;;;;;-7.43;81.44;102511.81;5031944;28;20087;-63
2023/02/11 05:52:43;;;;;;;24.03;12.47;;;;;;;-7.46;81.81;102512.28;5032201;28;20033;-66
2023/02/11 05:55:08;;;;;;;20.90;10.83;;;;;;;-7.76;82.31;102454.56;5031953;28;20034;-66
2023/02/11 05:57:34;;;;;;;26.67;11.63;;;;;;;-7.59;82.66;102493.66;5031738;28;20060;-62
2023/02/11 05:59:59;;;;;;;26.67;12.97;;;;;;;-7.80;83.49;102463.25;5013989;28;20068;-63
2023/02/11 06:02:25;;;;;;;24.53;12.57;;;;;;;-7.42;84.33;102517.03;5031585;28;20459;-66
2023/02/11 06:04:50;;;;;;;26.83;12.57;;;;;;;-7.33;83.61;102518.34;5031840;28;20415;-62
2023/02/11 06:07:16;;;;;;;25.67;11.83;;;;;;;-7.28;82.98;102516.47;5031606;28;20033;-66
2023/02/11 06:09:42;;;;;;;18.93;11.63;;;;;;;-7.20;83.36;102518.47;5031896;28;20029;-67
2023/02/11 06:12:07;;;;;;;24.27;12.17;;;;;;;-7.16;82.81;102519.81;5031558;28;20144;-65
2023/02/11 06:14:33;;;;;;;26.90;13.57;;;;;;;-7.13;83.39;102519.31;5031356;28;20033;-67
2023/02/11 06:16:59;;;;;;;23.20;12.37;;;;;;;-7.10;83.43;102518.16;5031717;28;20116;-66
2023/02/11 06:19:24;;;;;;;20.83;11.70;;;;;;;-7.26;82.69;102472.41;5031516;28;20033;-65
2023/02/11 06:21:50;;;;;;;23.83;12.93;;;;;;;-6.99;83.59;102504.56;5031270;28;20086;-65
2023/02/11 06:24:15;;;;;;;33.93;15.43;;;;;;;-7.00;82.63;102508.69;5031216;28;20025;-63
2023/02/11 06:26:40;;;;;;;41.73;17.33;;;;;;;-6.92;83.36;102512.28;5030948;28;20030;-65
2023/02/11 06:29:06;;;;;;;47.53;19.53;;;;;;;-6.87;83.87;102510.41;5031407;28;20476;-63
2023/02/11 06:31:31;;;;;;;51.33;21.53;;;;;;;-6.88;83.72;102513.59;5031082;28;20517;-62
2023/02/11 06:33:58;;;;;;;56.43;27.13;;;;;;;-7.22;85.39;102513.91;5013306;28;20041;-63
2023/02/11 06:36:23;;;;;;;50.33;23.60;;;;;;;-7.05;85.72;102513.75;5031167;28;20037;-66
2023/02/11 06:38:49;;;;;;;37.70;18.67;;;;;;;-6.82;86.23;102511.94;5030934;28;20064;-65
2023/02/11 06:41:18;;;;;;;37.37;18.00;;;;;;;-6.62;86.26;102514.72;5030768;28;20104;-67
2023/02/11 06:43:44;;;;;;;;;;;;;;;-6.40;85.55;102507.63;5031515;28;20380;-66
2023/02/11 06:46:09;;;;;;;41.87;20.27;;;;;;;-6.52;85.63;102457.50;5031159;28;19920;-65
2023/02/11 06:48:35;;;;;;;39.33;20.10;;;;;;;-6.17;85.89;102505.72;5009843;28;20044;-66
2023/02/11 06:51:03;;;;;;;40.80;19.13;;;;;;;-6.05;86.58;102502.38;5031013;28;20107;-67
2023/02/11 06:53:29;;;;;;;43.77;20.20;;;;;;;-5.97;87.03;102502.47;5030650;28;20025;-63
2023/02/11 06:55:55;;;;;;;46.53;20.40;;;;;;;-5.88;87.33;102503.72;5030949;28;20454;-69
2023/02/11 06:58:20;;;;;;;48.07;21.40;;;;;;;-5.83;87.50;102496.78;5030476;28;20473;-65
2023/02/11 07:00:46;;;;;;;41.47;19.27;;;;;;;-6.00;87.91;102440.13;5030598;28;20056;-68
2023/02/11 07:03:11;;;;;;;43.60;20.63;;;;;;;-5.40;87.79;102505.97;4979345;28;20038;-66
2023/02/11 07:05:37;;;;;;;48.83;23.40;;;;;;;-5.49;86.83;102439.31;5030743;28;20136;-63
2023/02/11 07:08:03;;;;;;;54.73;22.87;;;;;;;-4.99;86.44;102499.56;4995625;28;20065;-62
2023/02/11 07:10:29;;;;;;;50.17;22.50;;;;;;;-4.96;86.01;102456.25;5030677;28;20100;-63
2023/02/11 07:12:54;;;;;;;51.73;24.13;;;;;;;-4.94;85.43;102427.13;5030439;28;20121;-65
2023/02/11 07:15:20;;;;;;;47.73;21.03;;;;;;;-4.57;85.36;102477.28;5031046;28;20755;-66
2023/02/11 07:17:45;;;;;;;49.87;23.10;;;;;;;-4.45;84.87;102504.09;5030115;28;20045;-65
2023/02/11 07:20:13;;;;;;;49.23;22.43;;;;;;;-4.68;85.65;102492.63;5030332;28;20021;-67
2023/02/11 07:22:38;;;;;;;43.07;21.07;;;;;;;-4.41;86.27;102487.72;5030619;28;20025;-62
2023/02/11 07:25:04;;;;;;;41.13;21.53;;;;;;;-4.43;86.01;102486.63;5030393;28;20029;-61
2023/02/11 07:27:30;;;;;;;48.73;23.47;;;;;;;-4.27;87.04;102480.31;5030177;28;20025;-65
2023/02/11 07:29:55;;;;;;;51.73;22.70;;;;;;;-3.95;86.57;102480.09;5030588;28;20087;-66
2023/02/11 07:32:21;;;;;;;43.93;20.43;;;;;;;-3.70;85.43;102489.19;5030444;28;20037;-67
2023/02/11 07:34:47;;;;;;;42.83;19.83;;;;;;;-3.56;83.60;102478.31;5012688;28;20045;-66
2023/02/11 07:37:12;;;;;;;39.90;18.33;;;;;;;-3.48;83.53;102462.47;5030564;28;20124;-68
2023/02/11 07:39:38;;;;;;;39.40;19.63;;;;;;;-3.19;82.33;102469.34;5032977;28;20136;-66
2023/02/11 07:42:04;;;;;;;47.10;22.20;;;;;;;-3.02;80.57;102461.34;5034173;28;20488;-65
2023/02/11 07:44:32;;;;;;;28.23;15.30;;;;;;;-3.22;77.01;102419.34;5034662;28;20025;-63
2023/02/11 07:46:57;;;;;;;33.23;16.23;;;;;;;-2.87;77.22;102463.22;5034122;28;20040;-66
2023/02/11 07:49:23;;;;;;;36.53;19.07;;;;;;;-2.79;77.88;102447.38;5034551;28;20029;-67
2023/02/11 07:51:50;;;;;;;30.87;17.30;;;;;;;-2.72;78.22;102459.13;5034272;28;20079;-69
2023/02/11 07:54:15;;;;;;;31.20;16.60;;;;;;;-2.69;78.11;102453.53;4999203;28;20041;-66
2023/02/11 07:56:41;;;;;;;37.73;18.10;;;;;;;-2.61;78.41;102442.75;5033932;28;20390;-62
2023/02/11 07:59:06;;;;;;;34.27;17.00;;;;;;;-2.49;78.79;102458.53;5034076;28;20034;-65
2023/02/11 08:01:32;;;;;;;35.60;18.20;;;;;;;-2.38;78.64;102452.22;5034163;28;20474;-64
2023/02/11 08:04:00;;;;;;;31.00;16.00;;;;;;;-2.36;78.51;102440.66;5034243;28;20025;-62
2023/02/11 08:06:28;;;;;;;35.40;17.30;;;;;;;-2.15;78.35;102453.34;5016333;28;20025;-65
2023/02/11 08:08:54;;;;;;;36.63;20.47;;;;;;;-2.18;78.22;102447.00;5034156;28;20037;-69
2023/02/11 08:11:27;;;;;;;31.50;17.37;;;;;;;-2.24;79.42;102451.34;5033574;28;20455;-64
2023/02/11 08:13:54;;;;;;;33.17;18.23;;;;;;;-2.13;80.05;102462.03;5033824;28;20045;-62
2023/02/11 08:16:27;;;;;;;30.87;18.27;;;;;;;-2.02;79.65;102445.63;5033960;28;20067;-67
2023/02/11 08:18:56;;;;;;;29.70;16.67;;;;;;;-1.99;79.66;102445.09;5033851;28;20125;-63
2023/02/11 08:21:22;;;;;;;32.72;16.02;;;;;;;-1.80;79.71;102435.50;5033954;28;20041;-67
2023/02/11 08:23:48;;;;;;;27.50;16.03;;;;;;;-1.96;80.49;102441.28;5033512;28;20565;-66
2023/02/11 08:26:19;;;;;;;28.13;17.13;;;;;;;-1.89;81.29;102422.66;5033836;28;20071;-63
2023/02/11 08:28:46;;;;;;;32.87;18.60;;;;;;;-1.84;81.78;102444.34;5033540;28;20021;-68
2023/02/11 08:31:16;;;;;;;30.90;17.23;;;;;;;-1.61;80.64;102441.09;5033521;28;20112;-65
2023/02/11 08:33:45;;;;;;;31.47;17.27;;;;;;;-1.43;80.45;102429.69;5033367;28;20021;-64
2023/02/11 08:36:22;;;;;;;29.00;16.37;;;;;;;-1.34;79.76;102422.25;5033501;28;20120;-63
2023/02/11 08:38:48;;;;;;;29.63;16.63;;;;;;;-1.26;80.14;102428.22;5013659;28;20045;-69
2023/02/11 08:41:14;;;;;;;29.17;16.90;;;;;;;-1.12;78.83;102439.94;5032985;28;20487;-64
2023/02/11 08:43:43;;;;;;;31.10;17.93;;;;;;;-1.04;78.88;102429.06;5015400;28;20032;-63
2023/02/11 08:46:12;;;;;;;31.38;16.35;;;;;;;-0.92;79.94;102430.47;5033144;28;20065;-63
2023/02/11 08:48:37;;;;;;;33.35;17.13;;;;;;;-0.95;78.66;102407.28;5032999;28;20021;-67
2023/02/11 08:51:07;;;;;;;28.80;16.20;;;;;;;-0.93;77.75;102374.53;5032506;28;20056;-66
2023/02/11 08:53:32;;;;;;;;;;;;;;;-0.55;77.61;102426.13;5033535;28;20069;-66
2023/02/11 08:55:58;;;;;;;33.73;18.97;;;;;;;-0.89;78.28;102331.91;5019166;28;20335;-66
2023/02/11 08:58:23;;;;;;;33.17;18.40;;;;;;;-0.35;78.85;102419.16;5013400;28;20018;-66
2023/02/11 09:00:49;;;;;;;33.03;18.70;;;;;;;-0.32;78.71;102405.91;5018286;28;20180;-63
2023/02/11 09:03:15;;;;;;;30.57;18.80;;;;;;;-0.15;78.46;102396.72;4981490;28;20076;-66
2023/02/11 09:05:46;;;;;;;32.63;16.97;;;;;;;-0.01;77.83;102401.69;5032627;28;20025;-66
2023/02/11 09:08:12;;;;;;;31.07;17.63;;;;;;;0.12;77.29;102401.41;5032631;28;20403;-66
2023/02/11 09:10:38;;;;;;;34.03;18.23;;;;;;;0.15;76.40;102389.06;5032692;28;20033;-69
2023/02/11 09:13:05;;;;;;;32.90;18.77;;;;;;;0.34;76.02;102391.97;5015033;28;20541;-66
2023/02/11 09:15:30;;;;;;;32.23;18.03;;;;;;;0.38;75.44;102393.19;5032700;28;20100;-67
2023/02/11 09:17:56;;;;;;;28.07;16.20;;;;;;;0.43;72.86;102372.63;5032434;28;20060;-65
2023/02/11 09:20:22;;;;;;;26.07;16.83;;;;;;;0.63;75.60;102386.59;5032897;28;20087;-65
2023/02/11 09:22:47;;;;;;;30.50;18.53;;;;;;;0.77;73.75;102375.34;5032278;28;20117;-63
2023/02/11 09:25:12;;;;;;;32.17;17.13;;;;;;;0.94;74.21;102374.63;5032608;28;20033;-66
2023/02/11 09:27:38;;;;;;;29.00;17.60;;;;;;;1.15;74.21;102380.16;5032401;28;20495;-62
2023/02/11 09:30:04;;;;;;;27.50;16.93;;;;;;;1.16;71.38;102357.44;5014778;28;20034;-69
2023/02/11 09:32:29;;;;;;;22.57;14.87;;;;;;;1.39;70.24;102375.09;5032366;28;20112;-66
2023/02/11 09:34:55;;;;;;;31.33;17.60;;;;;;;1.51;69.84;102370.41;5032000;28;20112;-66
2023/02/11 09:37:20;;;;;;;28.07;16.63;;;;;;;1.42;69.89;102316.00;5032156;28;20098;-67
2023/02/11 09:39:46;;;;;;;25.00;15.20;;;;;;;1.86;68.42;102350.22;5032114;28;20508;-66
2023/02/11 09:43:01;;;;;;;22.43;13.60;;;;;;;1.97;67.38;102345.31;5029462;28;20033;-65
2023/02/11 09:45:28;;;;;;;65.70;37.67;;;;;;;1.99;67.07;102332.00;5015596;28;20384;-63
2023/02/11 09:48:19;;;;;;;26.80;15.33;;;;;;;2.27;67.37;102332.25;5014523;28;20048;-62
2023/02/11 09:50:53;;;;;;;25.20;16.17;;;;;;;2.48;65.80;102320.75;5032061;28;20037;-63
2023/02/11 09:53:23;;;;;;;20.35;12.10;;;;;;;2.49;61.03;102327.63;5031894;28;20091;-66
2023/02/11 09:55:54;;;;;;;19.40;11.63;;;;;;;2.26;62.36;102316.03;4997097;28;20045;-68
2023/02/11 09:58:30;;;;;;;22.03;12.70;;;;;;;2.18;59.94;102311.84;5031945;28;20033;-63
2023/02/11 10:01:53;;;;;;;24.43;13.57;;;;;;;2.37;61.44;102306.03;5031182;28;20415;-68
2023/02/11 10:05:06;;;;;;;22.52;12.95;;;;;;;2.46;60.74;102289.09;4932397;29;20036;-65
2023/02/11 10:07:54;;;;;;;25.87;14.07;;;;;;;2.68;59.24;102276.81;4932122;29;20103;-65
2023/02/11 10:10:42;;;;;;;20.63;13.50;;;;;;;2.84;59.04;102275.75;4932033;29;20498;-62
2023/02/11 10:13:43;;;;;;;20.83;11.68;;;;;;;2.97;57.01;102285.50;4892573;29;20048;-66
2023/02/11 10:16:33;;;;;;;22.27;12.05;;;;;;;3.10;56.47;102269.72;4891850;29;20045;-65
2023/02/11 10:19:36;;;;;;;23.25;12.07;;;;;;;3.26;55.95;102260.22;4894113;29;20041;-66
2023/02/11 10:22:17;;;;;;;18.98;10.68;;;;;;;3.31;53.95;102263.22;4894049;29;20095;-63
2023/02/11 10:24:50;;;;;;;17.88;10.57;;;;;;;3.43;53.36;102243.03;4893764;29;20096;-63
2023/02/11 10:27:20;;;;;;;22.17;11.90;;;;;;;3.66;54.08;102237.53;4893978;29;20037;-68
2023/02/11 10:29:52;;;;;;;16.50;9.18;;;;;;;3.88;51.99;102231.09;4893763;29;20040;-63
2023/02/11 10:32:39;;;;;;;18.80;10.85;;;;;;;4.03;51.28;102228.19;4893620;29;20126;-67
2023/02/11 10:35:14;;;;;;;16.98;11.00;;;;;;;4.17;50.83;102214.09;4931094;28;20509;-65
2023/02/11 10:37:59;;;;;;;19.95;10.45;;;;;;;4.38;49.27;102204.91;4918303;29;20048;-63
2023/02/11 10:40:27;;;;;;;18.70;10.90;;;;;;;4.50;49.32;102198.34;4931099;29;20043;-65
2023/02/11 10:42:57;;;;;;;17.77;10.07;;;;;;;4.59;48.77;102205.06;4931709;29;20050;-65
2023/02/11 10:45:31;;;;;;;16.98;9.50;;;;;;;4.78;47.74;102188.00;4931203;29;20425;-65
2023/02/11 10:47:58;;;;;;;14.52;8.90;;;;;;;4.43;47.83;102198.56;4931428;29;20063;-65
2023/02/11 10:50:31;;;;;;;14.65;9.35;;;;;;;4.11;47.24;102190.53;4951783;28;20455;-68
2023/02/11 10:53:19;;;;;;;14.57;8.32;;;;;;;4.40;46.20;102187.16;4958627;28;20043;-65
2023/02/11 10:55:51;;;;;;;16.52;8.48;;;;;;;4.61;46.29;102173.72;4892905;29;20048;-66
2023/02/11 10:58:27;;;;;;;16.48;9.82;;;;;;;4.56;46.75;102172.44;4892997;29;20051;-65
2023/02/11 11:00:54;;;;;;;21.30;11.02;;;;;;;4.48;45.76;102122.25;4892947;29;20506;-66
2023/02/11 11:03:30;;;;;;;17.30;10.43;;;;;;;4.80;44.45;102129.28;4869480;29;20520;-66
2023/02/11 11:06:08;;;;;;;16.85;9.73;;;;;;;4.82;43.48;102127.75;4885893;29;20061;-65
2023/02/11 11:08:46;;;;;;;18.17;10.93;;;;;;;5.10;42.97;102160.88;4876244;29;20047;-65
2023/02/11 11:11:14;;;;;;;17.33;9.48;;;;;;;5.29;41.50;102153.97;4892244;29;20033;-69
2023/02/11 11:13:53;;;;;;;16.60;9.60;;;;;;;4.80;42.63;102093.47;4905297;29;20056;-66
2023/02/11 11:16:21;;;;;;;19.42;12.32;;;;;;;4.83;43.21;102102.28;4932380;29;20047;-63
2023/02/11 11:18:49;;;;;;;15.90;9.77;;;;;;;4.97;42.54;102148.66;4932395;29;20569;-66
2023/02/11 11:21:23;;;;;;;17.15;8.85;;;;;;;5.13;40.64;102140.63;4929380;29;20036;-66
2023/02/11 11:23:52;;;;;;;14.57;9.73;;;;;;;5.27;40.52;102116.22;4929998;29;20043;-66
2023/02/11 11:26:18;;;;;;;18.55;11.10;;;;;;;5.48;42.04;102120.59;4938221;29;20051;-65